Details From SBBI - Curitiba Bacacheri
To SBLO - Londrina
Flight Number -
Tags Routegen Generated
Created
Modified
Stats Distance 162 nm / 300 km
Max Altitude 800 ft / 244 m
Waypoints 8
Social Downloads 3
Likes 0
Share VATSIM

Download

Looking for another format? Having issues loading an existing format? Contact us
Advertisement - Login to hide

Notes

Departing runway 33 SBBI. Arriving runway 11 SBLO.

Route

SBBI -25.33_-049.27 -25.29_-049.31 -24.61_-049.92 -23.45_-050.97 -23.40_-050.00 -23.36_-051.05 SBLO

ID Type Via Altitude Latitude Longitude Leg Dist Tot Dist Heading (true) Name
O SBBI APT - 0 ft / 0 m -25.39926˚ -49.23469˚ - 0 nm - -
-25.33_-049.27 LATLON - 800 ft / 244 m -25.33237˚ -49.26525˚ 4 nm 4 nm 338° / 338° -
-25.29_-049.31 LATLON - 800 ft / 244 m -25.28964˚ -49.30846˚ 3 nm 7 nm 318° / 318° -
-24.61_-049.92 LATLON - 800 ft / 244 m -24.61312˚ -49.92370˚ 52 nm 60 nm 320° / 321° -
-23.45_-050.97 LATLON - 800 ft / 244 m -23.44968˚ -50.96703˚ 90 nm 150 nm 320° / 321° -
-23.40_-050.00 LATLON - 800 ft / 244 m -23.39941˚ -50.99832˚ 3 nm 154 nm 330° / 330° -
-23.36_-051.05 LATLON - 800 ft / 244 m -23.36198˚ -51.04644˚ 3 nm 157 nm 310° / 310° -
O SBLO APT - 0 ft / 0 m -23.33691˚ -51.12038˚ 4 nm 162 nm 290° / 290° -

Altitude Profile

Advertisement - Login to hide

Weather


0- 5 10 15 20 25 30 35+ Temperature / ° C

Clouds and Precipitation
Forecast for 2017-12-17 06:00 UTC. Updated an hour ago

Ground ~20,000 ft ~40,000 ft Winds

SBBI

Details ICAO SBBI (BFH)
Name Curitiba Bacacheri
Region Brazil
Timezone America/Sao_Paulo (UTC-2.0)
Stats Elevation 3,057 ft / 932 m (AMSL)
Location -25.405079° -49.232036°
Runways 1
Magnetic Variation 19.615° W

METAR

Not found

TAF

TAF SBBI 170300Z 1706/1718 35006KT 9999 SCT030 TN20/1709Z TX33/1718Z PROB30 1706/1709 02004KT BKN008 PROB30 1712/1715 FEW025 PROB30 1715/1718 8000 SHRA FEW035TCU RMK PDN

Decode

Departure Runways

ID Width Length Bearing (true) Bearing (mag) Surface Threshold Offset Overrun Length
18 98 ft / 30 m 4,591 ft / 1,399 m 157.57° 177.19° Asphalt 527 ft / 161 m 0 ft / 0 m
36 98 ft / 30 m 4,591 ft / 1,399 m 337.56° 357.18° Asphalt 350 ft / 107 m 0 ft / 0 m

SBLO

Details ICAO SBLO (LDB)
Name Londrina
Region Brazil
Timezone America/Sao_Paulo (UTC-2.0)
Stats Elevation 1,867 ft / 569 m (AMSL)
Location -23.333624° -51.130072°
Runways 1
Magnetic Variation 19.075° W

METAR

SBLO 170600Z 36004KT CAVOK 25/20 Q1011

Decode

TAF

TAF SBLO 170300Z 1706/1718 36012KT 9999 SCT035 TN25/1709Z TX34/1717Z PROB30 1706/1709 03004KT FEW030 BECMG 1715/1718 34002KT 9999 VCSH FEW040TCU RMK PDN

Decode

Destination Runways

ID Width Length Bearing (true) Bearing (mag) Surface Threshold Offset Overrun Length
13 148 ft / 45 m 6,926 ft / 2,111 m 110.29° 129.36° Asphalt 975 ft / 297 m 0 ft / 0 m
31 148 ft / 45 m 6,926 ft / 2,111 m 290.28° 309.35° Asphalt 0 ft / 0 m 100 ft / 30 m